Time;durP1;ratioP1;P1;durP2;ratioP2;P2;SDS_P1;SDS_P2;PMS_P1;PMS_P2;Temp;Humidity;BMP_temperature;BMP_pressure;BME280_temperature;BME280_humidity;BME280_pressure;Samples;Min_cycle;Max_cycle;Signal;HPM_P1;HPM_P2
2021/07/15 00:01:11;;;;;;;0.70;0.40;;;;;;;18.11;88.76;95895.25;5037904;28;20205;-73
2021/07/15 00:03:38;;;;;;;0.30;0.30;;;;;;;17.81;90.76;95896.41;5038263;28;20673;-73
2021/07/15 00:06:05;;;;;;;0.90;0.30;;;;;;;17.86;90.40;95883.19;5037472;28;20200;-73
2021/07/15 00:08:33;;;;;;;0.50;0.20;;;;;;;18.07;88.96;95893.28;5036738;28;20556;-73
2021/07/15 00:11:02;;;;;;;0.50;0.30;;;;;;;18.12;89.63;95888.88;5038079;28;20209;-73
2021/07/15 00:13:28;;;;;;;0.30;0.30;;;;;;;18.04;89.65;95885.75;5037650;28;20837;-73
2021/07/15 00:15:58;;;;;;;0.85;0.30;;;;;;;18.18;89.33;95887.19;5037769;28;20224;-73
2021/07/15 00:18:28;;;;;;;0.20;0.20;;;;;;;17.89;91.19;95883.53;5036879;28;20209;-73
2021/07/15 00:20:57;;;;;;;3.30;0.40;;;;;;;17.94;90.71;95874.84;5037143;28;20201;-73
2021/07/15 00:23:24;;;;;;;0.20;0.20;;;;;;;18.03;90.36;95879.59;5036795;28;20205;-73
2021/07/15 00:25:52;;;;;;;0.30;0.30;;;;;;;17.86;90.68;95880.53;5037893;28;20224;-73
2021/07/15 00:28:19;;;;;;;0.80;0.20;;;;;;;18.09;91.50;95869.88;5036389;28;20212;-73
2021/07/15 00:30:46;;;;;;;3.10;0.30;;;;;;;18.13;91.31;95879.03;5037033;28;20307;-74
2021/07/15 00:33:12;;;;;;;0.50;0.50;;;;;;;18.02;90.57;95869.16;5037544;28;20568;-73
2021/07/15 00:35:39;;;;;;;0.30;0.30;;;;;;;18.16;90.97;95862.56;5037506;28;20225;-73
2021/07/15 00:38:07;;;;;;;0.40;0.30;;;;;;;18.15;90.40;95861.75;5036629;28;20208;-73
2021/07/15 00:40:34;;;;;;;0.20;0.20;;;;;;;18.05;91.16;95855.38;5037411;28;20600;-73
2021/07/15 00:43:02;;;;;;;1.33;0.30;;;;;;;18.19;91.61;95854.94;5037262;28;20212;-73
2021/07/15 00:45:30;;;;;;;2.65;0.30;;;;;;;18.05;91.34;95856.19;5037118;28;20197;-73
2021/07/15 00:47:57;;;;;;;0.40;0.30;;;;;;;17.83;92.20;95854.31;5036353;28;20295;-73
2021/07/15 00:50:24;;;;;;;0.20;0.20;;;;;;;17.79;92.78;95856.66;5033771;28;20229;-73
2021/07/15 00:52:53;;;;;;;0.30;0.30;;;;;;;17.79;92.52;95850.50;5036863;28;20208;-73
2021/07/15 00:55:22;;;;;;;1.48;0.30;;;;;;;18.04;92.18;95848.44;5037173;28;20262;-73
2021/07/15 00:57:50;;;;;;;0.63;0.30;;;;;;;17.95;91.40;95857.81;5037175;28;20224;-73
2021/07/15 01:00:19;;;;;;;0.30;0.20;;;;;;;17.77;93.08;95857.91;5036452;28;20221;-73
2021/07/15 01:02:46;;;;;;;3.00;0.30;;;;;;;17.83;92.97;95848.97;5036314;28;20573;-73
2021/07/15 01:05:16;;;;;;;0.30;0.30;;;;;;;17.84;92.62;95854.06;5037141;28;20204;-73
2021/07/15 01:07:43;;;;;;;0.40;0.30;;;;;;;17.72;93.62;95858.59;5036027;28;20220;-73
2021/07/15 01:10:11;;;;;;;0.20;0.20;;;;;;;17.90;92.77;95852.38;5035697;28;20557;-73
2021/07/15 01:12:51;;;;;;;0.30;0.20;;;;;;;17.98;91.85;95844.00;5037145;28;20209;-73
2021/07/15 01:15:22;;;;;;;1.92;0.30;;;;;;;18.03;92.55;95857.47;5036548;28;20200;-73
2021/07/15 01:17:57;;;;;;;1.13;0.30;;;;;;;18.03;92.97;95860.13;5035663;28;20205;-73
2021/07/15 01:20:55;;;;;;;0.52;0.30;;;;;;;18.23;91.87;95852.59;5036668;28;20228;-73
2021/07/15 01:23:41;;;;;;;1.63;0.22;;;;;;;18.24;91.59;95855.06;5036330;28;20275;-73
2021/07/15 01:26:29;;;;;;;1.88;0.32;;;;;;;18.33;91.48;95849.13;5036693;28;20274;-73
2021/07/15 01:29:10;;;;;;;2.10;0.38;;;;;;;18.17;92.02;95843.69;5036065;28;20225;-73
2021/07/15 01:31:41;;;;;;;2.65;0.22;;;;;;;18.25;91.78;95840.66;5036426;28;20998;-73
2021/07/15 01:34:11;;;;;;;2.78;0.32;;;;;;;18.22;92.18;95838.47;5037156;28;20205;-73
2021/07/15 01:36:41;;;;;;;0.20;0.20;;;;;;;18.05;93.35;95850.03;5040799;28;20589;-74
2021/07/15 01:39:10;;;;;;;0.30;0.30;;;;;;;18.12;92.24;95845.41;5039966;28;20240;-73
2021/07/15 01:41:41;;;;;;;0.50;0.35;;;;;;;18.23;92.38;95842.78;5040503;28;20217;-73
2021/07/15 01:44:10;;;;;;;1.75;0.30;;;;;;;17.83;93.53;95846.31;5040523;28;20205;-73
2021/07/15 01:46:40;;;;;;;1.35;0.25;;;;;;;18.24;92.28;95846.22;5040527;28;20201;-73
2021/07/15 01:49:07;;;;;;;0.43;0.40;;;;;;;18.12;92.56;95843.53;5036785;28;20248;-73
2021/07/15 01:51:34;;;;;;;0.28;0.28;;;;;;;18.29;92.07;95841.00;5040439;28;20212;-73
2021/07/15 01:54:02;;;;;;;3.35;0.30;;;;;;;18.37;91.90;95836.16;5040032;28;21277;-73
2021/07/15 01:56:30;;;;;;;1.83;0.30;;;;;;;18.37;92.03;95839.63;5039872;28;20277;-73
2021/07/15 01:58:59;;;;;;;0.32;0.32;;;;;;;18.25;91.95;95838.00;5039265;28;20233;-73
2021/07/15 02:01:27;;;;;;;0.30;0.30;;;;;;;18.09;93.59;95827.22;5040717;28;20209;-73
2021/07/15 02:03:57;;;;;;;0.55;0.45;;;;;;;18.21;93.54;95834.16;5040042;28;20209;-73
2021/07/15 02:06:24;;;;;;;0.30;0.30;;;;;;;18.22;93.13;95825.13;5040293;28;20240;-73
2021/07/15 02:08:53;;;;;;;0.45;0.35;;;;;;;18.25;93.36;95821.19;5039810;28;20965;-73
2021/07/15 02:11:22;;;;;;;0.70;0.35;;;;;;;18.08;93.76;95823.72;5039244;28;21092;-73
2021/07/15 02:13:50;;;;;;;1.75;0.30;;;;;;;18.16;94.32;95825.22;5039548;28;20201;-73
2021/07/15 02:16:18;;;;;;;1.10;0.30;;;;;;;18.26;94.02;95826.28;5040440;28;20231;-73
2021/07/15 02:18:46;;;;;;;0.50;0.30;;;;;;;17.94;95.74;95826.88;5039244;28;20290;-73
2021/07/15 02:21:15;;;;;;;1.58;0.50;;;;;;;18.17;94.87;95822.34;5035837;28;20608;-73
2021/07/15 02:23:44;;;;;;;2.38;0.35;;;;;;;18.31;94.70;95828.28;5039729;28;20205;-73
2021/07/15 02:26:12;;;;;;;0.20;0.20;;;;;;;18.26;94.91;95825.50;5039258;28;20212;-73
2021/07/15 02:28:39;;;;;;;0.63;0.30;;;;;;;18.10;95.73;95828.81;5038436;28;20212;-73
2021/07/15 02:31:12;;;;;;;4.07;0.40;;;;;;;18.37;95.57;95823.59;5039395;28;20665;-73
2021/07/15 02:33:44;;;;;;;0.20;0.20;;;;;;;18.37;95.25;95823.59;5039551;28;20958;-73
2021/07/15 02:36:11;;;;;;;0.32;0.30;;;;;;;18.25;95.57;95823.84;5038995;28;20713;-73
2021/07/15 02:38:41;;;;;;;2.28;0.30;;;;;;;18.36;95.49;95827.31;5039032;28;20216;-73
2021/07/15 02:41:08;;;;;;;0.43;0.28;;;;;;;18.35;95.21;95825.72;5039401;28;20229;-73
2021/07/15 02:43:34;;;;;;;0.40;0.30;;;;;;;18.26;95.44;95825.50;5039082;28;20212;-73
2021/07/15 02:46:01;;;;;;;0.40;0.30;;;;;;;18.15;95.59;95826.25;5038334;28;20232;-73
2021/07/15 02:48:27;;;;;;;0.30;0.30;;;;;;;18.17;96.08;95830.34;5036065;28;20216;-73
2021/07/15 02:50:54;;;;;;;0.75;0.40;;;;;;;18.14;96.67;95821.97;5038800;28;21077;-73
2021/07/15 02:53:21;;;;;;;0.50;0.30;;;;;;;18.24;96.66;95827.56;5039240;28;20207;-73
2021/07/15 02:55:53;;;;;;;2.58;0.32;;;;;;;18.18;97.08;95829.31;5038972;28;20216;-73
2021/07/15 02:58:25;;;;;;;0.30;0.30;;;;;;;18.00;97.57;95820.63;5038337;28;20213;-73
2021/07/15 03:00:56;;;;;;;1.00;0.30;;;;;;;18.14;97.08;95829.97;5038730;28;20673;-73
2021/07/15 03:03:35;;;;;;;0.30;0.30;;;;;;;18.11;97.41;95828.56;5039206;28;20590;-73
2021/07/15 03:06:09;;;;;;;0.30;0.30;;;;;;;17.81;98.08;95829.75;5038608;28;20213;-73
2021/07/15 03:08:44;;;;;;;0.75;0.30;;;;;;;17.71;99.06;95827.66;5038760;28;20231;-73
2021/07/15 03:11:12;;;;;;;0.45;0.30;;;;;;;17.97;97.72;95821.06;5038486;28;20223;-73
2021/07/15 03:13:40;;;;;;;0.63;0.40;;;;;;;18.01;97.30;95819.53;5038050;28;21132;-73
2021/07/15 03:16:06;;;;;;;0.30;0.30;;;;;;;17.71;98.11;95815.38;5038594;28;20737;-72
2021/07/15 03:18:37;;;;;;;0.30;0.30;;;;;;;17.72;98.62;95813.28;5038838;28;20212;-73
2021/07/15 03:21:05;;;;;;;0.30;0.30;;;;;;;17.86;97.25;95812.03;5038295;28;20961;-72
2021/07/15 03:23:33;;;;;;;0.40;0.35;;;;;;;18.01;96.26;95811.53;5038736;28;20212;-73
2021/07/15 03:26:00;;;;;;;0.85;0.30;;;;;;;17.94;96.11;95813.53;5038967;28;20606;-73
2021/07/15 03:28:31;;;;;;;0.63;0.30;;;;;;;18.08;96.01;95817.59;5037775;28;20208;-72
2021/07/15 03:31:10;;;;;;;2.60;0.30;;;;;;;17.75;95.97;95812.00;5038173;28;20213;-73
2021/07/15 03:33:38;;;;;;;3.10;0.40;;;;;;;18.03;95.86;95814.81;5038427;28;20208;-73
2021/07/15 03:36:05;;;;;;;0.50;0.28;;;;;;;18.00;95.61;95816.06;5038355;28;20622;-73
2021/07/15 03:38:33;;;;;;;1.75;0.30;;;;;;;17.90;95.32;95812.38;5037716;28;20853;-73
2021/07/15 03:41:01;;;;;;;1.48;0.40;;;;;;;17.52;97.30;95817.31;5038411;28;20205;-73
2021/07/15 03:43:30;;;;;;;1.85;0.35;;;;;;;17.65;96.82;95817.09;5038101;28;20581;-73
2021/07/15 03:45:57;;;;;;;1.75;0.40;;;;;;;17.81;96.32;95824.44;5037759;28;20675;-73
2021/07/15 03:48:24;;;;;;;1.70;0.43;;;;;;;17.74;97.03;95832.53;5035801;28;20197;-73
2021/07/15 03:50:51;;;;;;;2.20;0.40;;;;;;;17.82;96.46;95834.84;5038109;28;20600;-73
2021/07/15 03:53:18;;;;;;;4.78;1.33;;;;;;;17.95;96.17;95839.16;5037217;28;21048;-73
2021/07/15 03:55:46;;;;;;;3.20;1.17;;;;;;;17.76;96.63;95835.75;5037941;28;20206;-73
2021/07/15 03:58:14;;;;;;;1.10;0.70;;;;;;;17.99;95.74;95835.78;5037304;28;21165;-73
2021/07/15 04:00:45;;;;;;;1.90;0.65;;;;;;;18.14;95.87;95837.97;5038056;28;20280;-73
2021/07/15 04:03:15;;;;;;;0.82;0.57;;;;;;;17.98;94.61;95850.16;5037264;28;21121;-73
2021/07/15 04:05:42;;;;;;;0.80;0.40;;;;;;;18.05;95.27;95852.69;5038051;28;20236;-73
2021/07/15 04:08:09;;;;;;;0.50;0.50;;;;;;;18.20;95.29;95858.41;5037244;28;20201;-73
2021/07/15 04:10:39;;;;;;;4.90;2.17;;;;;;;17.91;95.90;95856.66;5037598;28;20255;-73
2021/07/15 04:13:06;;;;;;;4.50;1.80;;;;;;;18.24;95.11;95864.91;5038078;28;21167;-73
2021/07/15 04:15:50;;;;;;;7.18;2.90;;;;;;;18.33;95.00;95863.50;5037567;28;20201;-73
2021/07/15 04:18:18;;;;;;;5.85;2.92;;;;;;;18.38;94.91;95856.44;5036503;28;20735;-73
2021/07/15 04:20:46;;;;;;;5.97;1.80;;;;;;;18.35;94.44;95855.06;5037876;28;20229;-73
2021/07/15 04:23:14;;;;;;;1.77;0.93;;;;;;;18.24;94.42;95863.06;5037948;28;20204;-73
2021/07/15 04:25:43;;;;;;;1.90;0.50;;;;;;;18.31;93.30;95854.94;5037073;28;20211;-73
2021/07/15 04:28:09;;;;;;;0.65;0.50;;;;;;;18.41;93.77;95851.44;5036673;28;20231;-73
2021/07/15 04:30:36;;;;;;;0.80;0.40;;;;;;;18.39;92.96;95853.53;5038129;28;20225;-73
2021/07/15 04:33:05;;;;;;;0.80;0.50;;;;;;;18.51;93.43;95859.66;5037253;28;20201;-73
2021/07/15 04:35:35;;;;;;;0.50;0.40;;;;;;;18.47;92.50;95855.84;5037289;28;20205;-73
2021/07/15 04:38:03;;;;;;;1.13;0.52;;;;;;;18.26;92.46;95846.81;5036957;28;20246;-73
2021/07/15 04:40:31;;;;;;;3.20;0.68;;;;;;;18.19;94.50;95851.44;5037094;28;20232;-73
2021/07/15 04:43:00;;;;;;;0.90;0.32;;;;;;;18.22;94.31;95845.69;5037245;28;20569;-73
2021/07/15 04:45:28;;;;;;;2.38;0.60;;;;;;;18.30;94.11;95845.31;5037285;28;20212;-73
2021/07/15 04:47:57;;;;;;;1.77;0.68;;;;;;;18.07;95.29;95845.28;5036387;28;20204;-73
2021/07/15 04:50:27;;;;;;;2.78;0.90;;;;;;;18.27;95.15;95840.44;5033978;28;20220;-72
2021/07/15 04:52:57;;;;;;;1.92;0.75;;;;;;;18.04;94.97;95843.09;5036866;28;20205;-72
2021/07/15 04:55:25;;;;;;;1.48;0.70;;;;;;;18.22;95.23;95835.00;5036677;28;20205;-72
2021/07/15 04:57:52;;;;;;;2.05;1.08;;;;;;;18.30;95.54;95834.63;5035901;28;20685;-72
2021/07/15 05:00:19;;;;;;;1.42;0.98;;;;;;;18.26;95.10;95828.97;5037137;28;20639;-72
2021/07/15 05:02:46;;;;;;;2.45;1.05;;;;;;;18.25;95.62;95835.31;5036599;28;20208;-72
2021/07/15 05:05:14;;;;;;;2.03;1.30;;;;;;;18.27;95.17;95829.78;5036613;28;20208;-73
2021/07/15 05:07:41;;;;;;;2.17;1.00;;;;;;;18.23;96.49;95833.94;5036094;28;20202;-72
2021/07/15 05:10:11;;;;;;;1.08;0.90;;;;;;;18.38;95.74;95835.91;5036478;28;20221;-72
2021/07/15 05:12:38;;;;;;;1.20;0.82;;;;;;;18.45;95.84;95841.13;5037240;28;20585;-72
2021/07/15 05:15:07;;;;;;;1.45;0.90;;;;;;;18.54;95.09;95840.50;5036551;28;20219;-72
2021/07/15 05:17:34;;;;;;;1.42;1.10;;;;;;;18.68;94.47;95841.06;5035659;28;20228;-72
2021/07/15 05:20:00;;;;;;;1.50;1.40;;;;;;;18.48;94.61;95833.47;5036273;28;20220;-72
2021/07/15 05:22:27;;;;;;;1.95;1.30;;;;;;;18.46;94.26;95835.53;5037091;28;20216;-72
2021/07/15 05:24:53;;;;;;;1.83;1.60;;;;;;;18.49;94.12;95821.72;5036766;28;20204;-72
2021/07/15 05:27:21;;;;;;;3.17;1.48;;;;;;;18.41;94.97;95824.75;5035985;28;20213;-72
2021/07/15 05:29:48;;;;;;;3.35;1.40;;;;;;;18.40;95.46;95817.78;5036403;28;20229;-72
2021/07/15 05:32:14;;;;;;;2.38;1.70;;;;;;;18.18;95.60;95818.66;5036593;28;20205;-72
2021/07/15 05:34:41;;;;;;;3.05;1.70;;;;;;;18.29;96.19;95814.34;5036716;28;20205;-72
2021/07/15 05:37:07;;;;;;;4.47;2.00;;;;;;;18.27;96.21;95813.78;5035820;28;20235;-72
2021/07/15 05:39:35;;;;;;;2.85;1.83;;;;;;;18.26;95.71;95809.47;5036522;28;20225;-72
2021/07/15 05:42:01;;;;;;;1.70;1.40;;;;;;;18.14;97.05;95797.97;5036222;28;20205;-72
2021/07/15 05:44:29;;;;;;;1.77;1.20;;;;;;;18.18;96.45;95799.19;5036677;28;20216;-72
2021/07/15 05:46:55;;;;;;;5.32;1.20;;;;;;;18.27;96.71;95809.25;5036442;28;20530;-72
2021/07/15 05:49:22;;;;;;;2.40;1.70;;;;;;;18.20;98.30;95810.41;5033285;28;20220;-72
2021/07/15 05:51:49;;;;;;;2.67;1.70;;;;;;;18.20;97.62;95815.75;5036547;28;20209;-72
2021/07/15 05:54:16;;;;;;;4.78;2.22;;;;;;;18.07;95.79;95813.28;5037026;28;20359;-73
2021/07/15 05:56:44;;;;;;;3.70;2.10;;;;;;;18.30;96.22;95811.44;5035959;28;20296;-72
2021/07/15 05:59:10;;;;;;;0.88;0.77;;;;;;;18.30;95.12;95819.44;5035439;28;20229;-72
2021/07/15 06:01:38;;;;;;;0.98;0.90;;;;;;;18.40;95.04;95825.78;5036253;28;20209;-72
2021/07/15 06:04:05;;;;;;;2.45;0.95;;;;;;;18.25;95.53;95824.66;5036224;28;20223;-72
2021/07/15 06:06:31;;;;;;;1.05;0.88;;;;;;;17.93;96.67;95830.56;5036480;28;20201;-72
2021/07/15 06:08:57;;;;;;;3.17;1.52;;;;;;;18.19;96.48;95835.44;5035722;28;20228;-72
2021/07/15 06:11:24;;;;;;;2.08;1.25;;;;;;;18.37;96.36;95833.47;5036290;28;20205;-72
2021/07/15 06:13:50;;;;;;;3.67;0.93;;;;;;;18.33;95.88;95839.50;5036341;28;20572;-72
2021/07/15 06:16:17;;;;;;;1.80;1.10;;;;;;;18.58;96.35;95839.00;5036097;28;20704;-72
2021/07/15 06:18:44;;;;;;;1.20;0.93;;;;;;;18.63;95.98;95843.63;5035608;28;20232;-72
2021/07/15 06:21:11;;;;;;;1.08;0.95;;;;;;;18.53;95.40;95838.91;5036634;28;20205;-72
2021/07/15 06:23:37;;;;;;;0.82;0.77;;;;;;;18.58;96.35;95840.84;5040100;28;20216;-72
2021/07/15 06:26:05;;;;;;;1.10;0.80;;;;;;;18.45;97.04;95846.44;5039973;28;20212;-73
2021/07/15 06:28:32;;;;;;;1.20;1.00;;;;;;;19.03;94.97;95845.25;5038666;28;20303;-73
2021/07/15 06:30:59;;;;;;;1.17;0.70;;;;;;;19.20;94.14;95854.16;5039608;28;20582;-73
2021/07/15 06:33:25;;;;;;;1.48;0.77;;;;;;;19.10;94.66;95862.78;5039814;28;20212;-72
2021/07/15 06:35:53;;;;;;;0.95;0.60;;;;;;;19.13;92.27;95859.66;5039686;28;20576;-72
2021/07/15 06:38:20;;;;;;;1.00;0.50;;;;;;;18.67;94.59;95850.13;5038721;28;21063;-73
2021/07/15 06:40:49;;;;;;;1.83;1.10;;;;;;;18.91;93.76;95844.47;5039351;28;20229;-72
2021/07/15 06:43:15;;;;;;;2.13;0.90;;;;;;;19.10;93.99;95841.41;5039447;28;20791;-72
2021/07/15 06:45:41;;;;;;;1.65;0.98;;;;;;;19.16;94.07;95850.34;5039169;28;20212;-72
2021/07/15 06:48:08;;;;;;;3.42;0.90;;;;;;;19.38;93.49;95849.41;5038408;28;20198;-72
2021/07/15 06:50:34;;;;;;;1.42;0.90;;;;;;;19.26;91.74;95845.19;5037322;28;20236;-73
2021/07/15 06:53:02;;;;;;;1.60;0.77;;;;;;;19.39;92.51;95855.59;5038975;28;20205;-73
2021/07/15 06:55:29;;;;;;;1.20;0.80;;;;;;;19.40;93.04;95851.84;5039459;28;20627;-72
2021/07/15 06:57:55;;;;;;;2.60;0.90;;;;;;;19.50;93.06;95846.69;5038425;28;20223;-72
2021/07/15 07:00:23;;;;;;;3.83;1.20;;;;;;;19.49;92.99;95853.91;5038708;28;20255;-73
2021/07/15 07:02:49;;;;;;;0.88;0.75;;;;;;;19.41;92.64;95856.13;5039223;28;20327;-73
2021/07/15 07:05:17;;;;;;;0.90;0.77;;;;;;;19.46;93.94;95864.25;5039511;28;20209;-73
2021/07/15 07:07:44;;;;;;;2.50;0.70;;;;;;;19.41;92.43;95864.16;5038192;28;20639;-73
2021/07/15 07:10:13;;;;;;;3.33;0.80;;;;;;;19.56;94.67;95864.44;5038870;28;20233;-73
2021/07/15 07:12:40;;;;;;;3.90;0.93;;;;;;;19.36;94.41;95864.06;5039224;28;20205;-73
2021/07/15 07:15:09;;;;;;;2.38;1.00;;;;;;;19.40;93.48;95863.34;5038765;28;20205;-73
2021/07/15 07:17:36;;;;;;;0.60;0.60;;;;;;;19.12;92.57;95865.22;5038211;28;20221;-73
2021/07/15 07:20:04;;;;;;;1.15;0.65;;;;;;;18.95;94.69;95869.66;5038658;28;20232;-73
2021/07/15 07:22:30;;;;;;;4.50;0.70;;;;;;;19.23;94.29;95859.00;5038180;28;20681;-73
2021/07/15 07:24:57;;;;;;;0.80;0.70;;;;;;;19.24;94.95;95868.66;5038405;28;20209;-73
2021/07/15 07:27:24;;;;;;;4.05;0.73;;;;;;;19.25;93.71;95868.41;5038339;28;20207;-73
2021/07/15 07:29:51;;;;;;;1.02;0.82;;;;;;;19.23;95.92;95875.03;5038406;28;20233;-73
2021/07/15 07:32:17;;;;;;;3.03;0.93;;;;;;;19.20;95.08;95872.84;5037832;28;20209;-73
2021/07/15 07:34:44;;;;;;;1.60;0.70;;;;;;;19.24;94.57;95874.00;5038743;28;20216;-73
2021/07/15 07:37:10;;;;;;;0.73;0.73;;;;;;;19.37;93.78;95874.50;5037686;28;20235;-73
2021/07/15 07:39:37;;;;;;;5.97;1.15;;;;;;;19.37;93.82;95874.50;5037883;28;20225;-73
2021/07/15 07:42:04;;;;;;;4.88;2.58;;;;;;;19.62;92.79;95881.13;5038349;28;20571;-73
2021/07/15 07:44:31;;;;;;;4.72;2.20;;;;;;;19.45;93.15;95879.47;5038216;28;20205;-73
2021/07/15 07:46:58;;;;;;;4.38;2.13;;;;;;;19.58;93.49;95882.66;5037646;28;20213;-73
2021/07/15 07:49:24;;;;;;;3.63;1.98;;;;;;;19.62;94.53;95875.78;5033895;28;20233;-72
2021/07/15 07:51:51;;;;;;;6.93;2.65;;;;;;;19.64;94.61;95875.56;5038043;28;20666;-72
2021/07/15 07:54:17;;;;;;;4.22;2.05;;;;;;;19.82;93.70;95878.81;5038124;28;20205;-72
2021/07/15 07:56:44;;;;;;;2.63;2.05;;;;;;;19.47;93.18;95879.25;5037955;28;20395;-72
2021/07/15 07:59:11;;;;;;;3.30;2.10;;;;;;;19.61;93.68;95874.16;5037328;28;21400;-72
2021/07/15 08:01:39;;;;;;;4.78;1.20;;;;;;;19.49;93.18;95879.78;5038221;28;20292;-72
2021/07/15 08:04:07;;;;;;;3.13;0.90;;;;;;;19.43;94.13;95875.44;5037613;28;20201;-72
2021/07/15 08:06:35;;;;;;;0.90;0.60;;;;;;;19.18;94.72;95883.78;5037805;28;20212;-72
2021/07/15 08:09:03;;;;;;;0.60;0.50;;;;;;;19.70;94.66;95878.06;5037235;28;20306;-72
2021/07/15 08:11:30;;;;;;;2.30;0.57;;;;;;;19.27;95.11;95879.69;5037636;28;20600;-72
2021/07/15 08:13:57;;;;;;;0.90;0.90;;;;;;;19.71;93.90;95882.34;5037505;28;20209;-72
2021/07/15 08:16:23;;;;;;;3.22;0.80;;;;;;;19.81;92.57;95871.03;5038259;28;20212;-72
2021/07/15 08:18:51;;;;;;;1.85;0.70;;;;;;;20.09;93.68;95879.81;5036987;28;20233;-72
2021/07/15 08:21:19;;;;;;;1.10;0.60;;;;;;;19.38;93.20;95880.69;5036769;28;20205;-72
2021/07/15 08:23:45;;;;;;;0.95;0.60;;;;;;;19.72;94.12;95880.50;5037741;28;20204;-72
2021/07/15 08:26:12;;;;;;;2.40;0.90;;;;;;;19.58;94.03;95877.31;5037649;28;20209;-72
2021/07/15 08:28:38;;;;;;;1.08;0.60;;;;;;;19.68;93.39;95888.19;5033743;28;20200;-72
2021/07/15 08:31:05;;;;;;;2.40;0.63;;;;;;;19.80;94.38;95885.44;5037264;28;20202;-72
2021/07/15 08:33:31;;;;;;;1.98;0.70;;;;;;;19.98;93.81;95871.88;5037382;28;20216;-73
2021/07/15 08:36:00;;;;;;;1.70;0.77;;;;;;;20.02;93.94;95873.81;5037313;28;20220;-72
2021/07/15 08:38:26;;;;;;;2.47;0.50;;;;;;;20.11;93.77;95876.88;5036950;28;20220;-72
2021/07/15 08:40:53;;;;;;;2.95;0.80;;;;;;;19.73;92.16;95882.94;5036796;28;20240;-72
2021/07/15 08:43:20;;;;;;;3.70;1.10;;;;;;;19.77;91.98;95883.25;5037281;28;20205;-72
2021/07/15 08:45:48;;;;;;;5.43;1.42;;;;;;;20.26;92.05;95873.41;5036541;28;21117;-72
2021/07/15 08:48:15;;;;;;;4.82;2.20;;;;;;;20.41;90.52;95872.81;5036626;28;20197;-72
2021/07/15 08:50:42;;;;;;;6.93;1.98;;;;;;;20.96;90.08;95874.38;5036587;28;20235;-72
2021/07/15 08:53:11;;;;;;;1.80;0.95;;;;;;;20.82;87.78;95875.00;5037031;28;20201;-72
2021/07/15 08:58:21;;;;;;;1.27;0.98;;;;;;;21.35;87.54;95860.63;5035847;28;20255;-72
2021/07/15 09:00:50;;;;;;;1.60;1.10;;;;;;;21.10;86.24;95868.38;5036749;28;20224;-72
2021/07/15 09:03:16;;;;;;;1.80;0.75;;;;;;;20.97;87.55;95863.41;5036937;28;20216;-72
2021/07/15 09:05:43;;;;;;;1.23;0.70;;;;;;;21.04;85.72;95868.56;5036964;28;20224;-72
2021/07/15 09:08:13;;;;;;;3.47;0.82;;;;;;;21.18;85.76;95862.59;5036168;28;20200;-72
2021/07/15 09:10:40;;;;;;;1.75;0.90;;;;;;;21.15;87.26;95863.09;5036253;28;20221;-72
2021/07/15 09:13:07;;;;;;;4.00;0.73;;;;;;;21.29;84.57;95867.00;5035452;28;20551;-72
2021/07/15 09:15:34;;;;;;;2.20;0.70;;;;;;;21.53;84.66;95869.16;5036138;28;20216;-72
2021/07/15 09:18:01;;;;;;;1.65;0.93;;;;;;;21.55;82.60;95868.94;5036629;28;20592;-72
2021/07/15 09:20:29;;;;;;;1.70;0.40;;;;;;;21.61;82.69;95871.41;5035627;28;20590;-73
2021/07/15 09:22:59;;;;;;;2.05;0.35;;;;;;;22.05;82.23;95865.59;5035576;28;20267;-73
2021/07/15 09:25:28;;;;;;;1.60;0.50;;;;;;;21.70;81.69;95875.25;5035751;28;20661;-73
2021/07/15 09:27:55;;;;;;;2.03;0.60;;;;;;;21.86;82.64;95868.13;5035751;28;20212;-73
2021/07/15 09:30:22;;;;;;;1.65;0.40;;;;;;;21.84;83.20;95872.94;5034561;28;20224;-73
2021/07/15 09:32:53;;;;;;;0.50;0.40;;;;;;;21.78;81.44;95869.41;5035781;28;20209;-73
2021/07/15 09:35:28;;;;;;;1.02;0.40;;;;;;;22.25;82.33;95863.09;5037084;28;20212;-73
2021/07/15 09:37:55;;;;;;;2.03;0.57;;;;;;;22.15;79.26;95868.38;5035386;28;21075;-73
2021/07/15 09:43:21;;;;;;;0.50;0.50;;;;;;;22.77;80.23;95875.53;4999470;28;20579;-72
2021/07/15 09:45:51;;;;;;;0.60;0.57;;;;;;;22.88;78.39;95873.69;5000116;28;20206;-73
2021/07/15 09:48:21;;;;;;;0.60;0.55;;;;;;;22.80;77.76;95883.06;5000734;28;20238;-73
2021/07/15 09:50:49;;;;;;;0.80;0.73;;;;;;;22.46;78.68;95874.81;4991934;28;20226;-73
2021/07/15 09:53:19;;;;;;;2.70;1.10;;;;;;;22.84;77.38;95878.00;4992622;28;20218;-73
2021/07/15 09:55:47;;;;;;;1.15;0.75;;;;;;;22.96;77.83;95879.41;4992260;28;20218;-73
2021/07/15 09:58:14;;;;;;;0.82;0.60;;;;;;;23.09;75.20;95876.25;4992124;28;20225;-72
2021/07/15 10:00:44;;;;;;;0.60;0.60;;;;;;;22.39;75.81;95879.56;4992326;28;20226;-73
2021/07/15 10:03:12;;;;;;;2.03;0.50;;;;;;;22.72;78.76;95882.75;4991463;28;20223;-72
2021/07/15 10:05:39;;;;;;;1.05;0.90;;;;;;;22.92;78.03;95878.28;4992356;28;20297;-73
2021/07/15 10:08:08;;;;;;;0.55;0.40;;;;;;;23.30;77.73;95877.94;4991653;28;20222;-73
2021/07/15 10:10:35;;;;;;;1.73;0.50;;;;;;;23.38;76.92;95883.63;4992023;28;20222;-72
2021/07/15 10:13:13;;;;;;;0.73;0.57;;;;;;;23.56;76.64;95888.50;4992186;28;20210;-72
2021/07/15 10:15:40;;;;;;;0.70;0.60;;;;;;;23.19;73.72;95886.22;4992031;28;20203;-72
2021/07/15 10:18:08;;;;;;;2.80;0.50;;;;;;;23.27;75.26;95883.03;4992057;28;20223;-73
2021/07/15 10:20:35;;;;;;;1.23;0.80;;;;;;;22.74;74.62;95888.66;4991104;28;21065;-73
2021/07/15 10:23:03;;;;;;;0.60;0.60;;;;;;;22.99;74.93;95886.16;4992127;28;20573;-73
2021/07/15 10:25:30;;;;;;;2.25;0.60;;;;;;;23.12;74.29;95891.84;4992222;28;20211;-73
2021/07/15 10:27:58;;;;;;;0.98;0.70;;;;;;;23.62;74.28;95876.66;4991546;28;20561;-73
2021/07/15 10:30:25;;;;;;;1.95;0.90;;;;;;;23.50;71.80;95878.00;4990573;28;20242;-73
2021/07/15 10:32:54;;;;;;;1.67;0.90;;;;;;;23.36;74.46;95882.28;4991905;28;20207;-73
2021/07/15 10:35:25;;;;;;;1.73;1.00;;;;;;;23.49;72.81;95892.53;4991752;28;21179;-71
2021/07/15 10:37:56;;;;;;;1.00;0.90;;;;;;;23.72;73.38;95884.81;4991709;28;20198;-71
2021/07/15 10:40:23;;;;;;;1.02;0.80;;;;;;;23.51;73.25;95883.13;4991714;28;20231;-73
2021/07/15 10:42:49;;;;;;;1.40;0.90;;;;;;;23.30;75.73;95884.13;4992045;28;20235;-74
2021/07/15 10:45:16;;;;;;;1.00;0.70;;;;;;;23.07;74.96;95881.06;4991996;28;20663;-73
2021/07/15 10:47:43;;;;;;;1.10;0.85;;;;;;;22.61;76.55;95875.72;4991213;28;20214;-73
2021/07/15 10:50:10;;;;;;;2.25;1.00;;;;;;;22.14;77.24;95887.44;4992365;28;20227;-72
2021/07/15 10:52:39;;;;;;;3.33;1.30;;;;;;;22.35;78.18;95884.69;4989263;28;20203;-72
2021/07/15 10:55:08;;;;;;;1.60;1.23;;;;;;;22.81;79.57;95890.06;4979456;28;20274;-73
2021/07/15 10:57:34;;;;;;;2.20;1.10;;;;;;;22.70;78.65;95893.75;4978599;28;20207;-73
2021/07/15 11:00:22;;;;;;;3.17;1.10;;;;;;;22.67;78.15;95893.47;4978433;28;20227;-73
2021/07/15 11:03:08;;;;;;;0.80;0.80;;;;;;;22.65;78.72;95890.22;4978884;28;20247;-72
2021/07/15 11:05:34;;;;;;;1.77;0.70;;;;;;;22.34;79.42;95891.09;4978762;28;20211;-73
2021/07/15 11:08:03;;;;;;;2.08;0.70;;;;;;;22.22;80.09;95898.50;4976720;28;20203;-73
2021/07/15 11:10:34;;;;;;;0.55;0.55;;;;;;;22.13;79.41;95897.38;4978126;28;20947;-72
2021/07/15 11:13:04;;;;;;;1.52;0.80;;;;;;;21.74;81.74;95903.19;4978904;28;20290;-73
2021/07/15 11:15:46;;;;;;;0.70;0.60;;;;;;;21.04;85.62;95906.09;4979070;28;20215;-73
2021/07/15 11:18:48;;;;;;;1.75;0.70;;;;;;;21.09;87.13;95909.66;4977452;28;20426;-72
2021/07/15 11:21:34;;;;;;;3.38;0.93;;;;;;;21.24;88.88;95920.53;4979038;28;20291;-72
2021/07/15 11:24:50;;;;;;;1.08;0.80;;;;;;;21.23;87.46;95921.63;4978073;28;20210;-73
2021/07/15 11:27:32;;;;;;;1.38;0.93;;;;;;;20.64;88.04;95918.13;4977179;28;20207;-73
2021/07/15 11:29:59;;;;;;;0.80;0.80;;;;;;;20.65;88.58;95917.84;4976799;28;20231;-72
2021/07/15 11:32:27;;;;;;;3.05;0.90;;;;;;;21.41;88.44;95917.78;4977462;28;20207;-75
2021/07/15 11:34:55;;;;;;;1.92;1.10;;;;;;;21.67;88.96;95918.66;4977438;28;20598;-72
2021/07/15 11:37:40;;;;;;;3.53;1.02;;;;;;;21.49;87.09;95915.47;4977203;28;20318;-73
2021/07/15 11:40:44;;;;;;;1.90;0.88;;;;;;;21.77;86.98;95916.06;4978189;28;20223;-73
2021/07/15 11:43:26;;;;;;;1.10;0.98;;;;;;;21.78;87.23;95914.19;4978246;28;20231;-73
2021/07/15 11:46:20;;;;;;;1.20;0.90;;;;;;;21.67;85.72;95923.22;4978106;28;20243;-73
2021/07/15 11:49:00;;;;;;;2.50;0.90;;;;;;;21.59;87.03;95929.84;4942154;28;20218;-72